createdAt,value
2022-08-05T00:05:07.329Z,1022
2022-08-05T00:15:14.120Z,1021
2022-08-05T00:25:08.268Z,1021
2022-08-05T00:35:07.686Z,1021
2022-08-05T00:45:08.598Z,1021
2022-08-05T00:55:07.417Z,1021
2022-08-05T01:05:09.946Z,1022
2022-08-05T01:15:17.109Z,1022
2022-08-05T01:25:07.556Z,1021
2022-08-05T01:35:10.523Z,1021
2022-08-05T01:45:08.101Z,1021
2022-08-05T01:55:07.427Z,1021
2022-08-05T02:05:11.732Z,1021
2022-08-05T02:15:07.729Z,1021
2022-08-05T02:25:07.558Z,1021
2022-08-05T02:35:09.790Z,1021
2022-08-05T02:45:07.530Z,1021
2022-08-05T02:55:10.782Z,1021
2022-08-05T03:05:07.549Z,1021
2022-08-05T03:15:07.636Z,1021
2022-08-05T03:25:11.826Z,1021
2022-08-05T03:35:08.866Z,1021
2022-08-05T03:45:21.217Z,1021
2022-08-05T03:55:51.417Z,1022
2022-08-05T04:05:09.597Z,1021
2022-08-05T04:15:07.758Z,1021
2022-08-05T04:25:07.718Z,1021
2022-08-05T04:35:07.627Z,1021
2022-08-05T04:45:07.726Z,1022
2022-08-05T04:55:14.119Z,1021
2022-08-05T05:05:17.111Z,1022
2022-08-05T05:15:10.699Z,1022
2022-08-05T05:25:16.231Z,1022
2022-08-05T05:35:07.816Z,1022
2022-08-05T05:45:07.712Z,1022
2022-08-05T05:55:13.115Z,1022
2022-08-05T06:05:10.297Z,1022
2022-08-05T06:15:07.978Z,1022
2022-08-05T06:25:11.349Z,1022
2022-08-05T06:35:15.319Z,1022
2022-08-05T06:45:08.267Z,1022
2022-08-05T06:55:07.807Z,1023
2022-08-05T07:05:11.605Z,1023
2022-08-05T07:15:08.734Z,1023
2022-08-05T07:25:09.434Z,1023
2022-08-05T07:35:56.161Z,1023
2022-08-05T07:45:09.372Z,1023
2022-08-05T07:55:15.738Z,1024
2022-08-05T08:05:07.931Z,1024
2022-08-05T08:15:09.578Z,1024
2022-08-05T08:25:15.614Z,1025
2022-08-05T08:35:07.832Z,1025
2022-08-05T08:45:21.709Z,1025
2022-08-05T08:55:11.117Z,1025
2022-08-05T09:05:17.062Z,1025
2022-08-05T09:15:07.899Z,1025
2022-08-05T09:25:13.629Z,1025
2022-08-05T09:35:08.087Z,1025
2022-08-05T09:45:18.105Z,1025
2022-08-05T09:55:55.985Z,1025
2022-08-05T10:05:08.112Z,1025
2022-08-05T10:15:08.169Z,1025
2022-08-05T10:25:08.096Z,1025
2022-08-05T10:35:07.979Z,1025
2022-08-05T10:45:09.764Z,1025
2022-08-05T10:55:07.961Z,1026
2022-08-05T11:05:08.060Z,1026
2022-08-05T11:15:12.053Z,1026
2022-08-05T11:25:16.676Z,1026
2022-08-05T11:35:08.163Z,1026
2022-08-05T11:45:14.649Z,1027
2022-08-05T11:55:10.423Z,1027
2022-08-05T12:05:17.834Z,1027
2022-08-05T12:15:08.163Z,1027
2022-08-05T12:25:08.059Z,1027
2022-08-05T12:35:08.168Z,1028
2022-08-05T12:45:08.824Z,1028
2022-08-05T12:55:08.151Z,1028
2022-08-05T13:05:08.261Z,1028
2022-08-05T13:15:11.173Z,1028
2022-08-05T13:25:18.998Z,1028
2022-08-05T13:35:08.134Z,1028
2022-08-05T13:45:08.241Z,1029
2022-08-05T13:55:09.719Z,1030
2022-08-05T14:05:11.433Z,1030
2022-08-05T14:16:06.455Z,1030
2022-08-05T14:25:19.364Z,1031
2022-08-05T14:35:10.606Z,1031
2022-08-05T14:45:08.933Z,1031
2022-08-05T14:55:08.369Z,1031
2022-08-05T15:05:08.480Z,1031
2022-08-05T15:15:10.755Z,1032
2022-08-05T15:25:11.736Z,1032
2022-08-05T15:35:09.950Z,1032
2022-08-05T15:45:09.749Z,1032
2022-08-05T15:55:08.357Z,1032
2022-08-05T16:05:09.540Z,1032
2022-08-05T16:15:09.534Z,1032
2022-08-05T16:25:09.962Z,1032
2022-08-05T16:35:08.355Z,1032
2022-08-05T16:46:03.260Z,1032
2022-08-05T16:55:08.345Z,1032
2022-08-05T17:05:08.442Z,1031
2022-08-05T17:15:08.390Z,1031
2022-08-05T17:25:09.524Z,1030
2022-08-05T17:35:08.470Z,1031
2022-08-05T17:45:10.046Z,1031
2022-08-05T17:55:08.566Z,1031
2022-08-05T18:05:08.544Z,1030
2022-08-05T18:15:08.748Z,1031
2022-08-05T18:25:08.450Z,1030
2022-08-05T18:35:08.557Z,1030
2022-08-05T18:45:08.471Z,1029
2022-08-05T18:55:10.248Z,1029
2022-08-05T19:05:25.115Z,1029
2022-08-05T19:15:10.749Z,1029
2022-08-05T19:25:08.738Z,1029
2022-08-05T19:35:08.609Z,1028
2022-08-05T19:45:08.676Z,1028
2022-08-05T19:56:12.054Z,1028
2022-08-05T20:05:09.580Z,1028
2022-08-05T20:15:08.637Z,1028
2022-08-05T20:25:08.679Z,1028
2022-08-05T20:35:08.579Z,1028
2022-08-05T20:45:08.657Z,1029
2022-08-05T20:55:16.062Z,1029
2022-08-05T21:05:09.273Z,1029
2022-08-05T21:15:08.753Z,1029
2022-08-05T21:25:08.656Z,1029
2022-08-05T21:35:17.945Z,1029
2022-08-05T21:45:10.740Z,1029
2022-08-05T21:55:08.871Z,1029
2022-08-05T22:05:09.019Z,1029
2022-08-05T22:15:08.731Z,1029
2022-08-05T22:25:08.878Z,1029
2022-08-05T22:35:08.738Z,1029
2022-08-05T22:45:08.831Z,1029
2022-08-05T22:55:18.503Z,1029
2022-08-05T23:05:08.887Z,1029
2022-08-05T23:15:09.378Z,1029
2022-08-05T23:25:08.869Z,1029
2022-08-05T23:35:08.793Z,1029
2022-08-05T23:45:14.072Z,1029
2022-08-05T23:55:08.915Z,1029
